sensor_id;sensor_type;location;lat;lon;timestamp;pressure;altitude;pressure_sealevel;temperature;humidity
13767;BME280;47980;48.794;9.176;2022-07-15T00:01:13;98532.56;;;21.02;49.09
13767;BME280;47980;48.794;9.176;2022-07-15T00:03:44;98530.25;;;21.04;49.07
13767;BME280;47980;48.794;9.176;2022-07-15T00:06:16;98533.69;;;20.86;50.20
13767;BME280;47980;48.794;9.176;2022-07-15T00:08:47;98536.75;;;20.71;50.49
13767;BME280;47980;48.794;9.176;2022-07-15T00:11:20;98538.22;;;20.57;50.64
13767;BME280;47980;48.794;9.176;2022-07-15T00:13:52;98535.13;;;20.52;50.40
13767;BME280;47980;48.794;9.176;2022-07-15T00:16:24;98532.06;;;20.57;51.04
13767;BME280;47980;48.794;9.176;2022-07-15T00:18:55;98530.78;;;20.33;52.39
13767;BME280;47980;48.794;9.176;2022-07-15T00:21:27;98527.72;;;20.31;51.04
13767;BME280;47980;48.794;9.176;2022-07-15T00:23:59;98525.81;;;20.42;51.31
13767;BME280;47980;48.794;9.176;2022-07-15T00:26:32;98526.19;;;20.44;52.36
13767;BME280;47980;48.794;9.176;2022-07-15T00:29:03;98541.97;;;20.38;51.77
13767;BME280;47980;48.794;9.176;2022-07-15T00:31:35;98526.53;;;20.25;51.91
13767;BME280;47980;48.794;9.176;2022-07-15T00:34:07;98523.78;;;20.14;52.53
13767;BME280;47980;48.794;9.176;2022-07-15T00:36:38;98530.34;;;20.16;52.97
13767;BME280;47980;48.794;9.176;2022-07-15T00:39:10;98528.75;;;20.05;53.73
13767;BME280;47980;48.794;9.176;2022-07-15T00:41:43;98527.50;;;19.91;54.07
13767;BME280;47980;48.794;9.176;2022-07-15T00:44:15;98528.28;;;19.92;54.09
13767;BME280;47980;48.794;9.176;2022-07-15T00:46:47;98528.75;;;20.05;53.61
13767;BME280;47980;48.794;9.176;2022-07-15T00:49:19;98532.56;;;20.04;53.62
13767;BME280;47980;48.794;9.176;2022-07-15T00:51:52;98536.72;;;19.87;53.77
13767;BME280;47980;48.794;9.176;2022-07-15T00:54:26;98529.78;;;19.89;53.45
13767;BME280;47980;48.794;9.176;2022-07-15T00:57:00;98530.16;;;19.84;53.81
13767;BME280;47980;48.794;9.176;2022-07-15T00:59:32;98528.19;;;19.78;53.68
13767;BME280;47980;48.794;9.176;2022-07-15T01:02:05;98535.81;;;19.68;53.78
13767;BME280;47980;48.794;9.176;2022-07-15T01:04:37;98534.25;;;19.67;54.07
13767;BME280;47980;48.794;9.176;2022-07-15T01:07:09;98531.97;;;19.69;54.38
13767;BME280;47980;48.794;9.176;2022-07-15T01:09:41;98527.31;;;19.63;53.12
13767;BME280;47980;48.794;9.176;2022-07-15T01:12:14;98530.31;;;19.54;53.87
13767;BME280;47980;48.794;9.176;2022-07-15T01:14:46;98536.34;;;19.40;54.48
13767;BME280;47980;48.794;9.176;2022-07-15T01:17:18;98536.81;;;19.53;53.43
13767;BME280;47980;48.794;9.176;2022-07-15T01:19:49;98536.75;;;19.46;53.54
13767;BME280;47980;48.794;9.176;2022-07-15T01:22:22;98537.13;;;19.41;54.08
13767;BME280;47980;48.794;9.176;2022-07-15T01:24:54;98538.63;;;19.38;54.38
13767;BME280;47980;48.794;9.176;2022-07-15T01:27:25;98543.72;;;19.47;54.06
13767;BME280;47980;48.794;9.176;2022-07-15T01:29:57;98544.84;;;19.46;53.71
13767;BME280;47980;48.794;9.176;2022-07-15T01:32:29;98551.53;;;19.18;54.78
13767;BME280;47980;48.794;9.176;2022-07-15T01:35:01;98546.25;;;19.29;54.72
13767;BME280;47980;48.794;9.176;2022-07-15T01:37:34;98538.53;;;19.28;52.72
13767;BME280;47980;48.794;9.176;2022-07-15T01:40:06;98545.53;;;19.36;52.48
13767;BME280;47980;48.794;9.176;2022-07-15T01:42:38;98545.84;;;19.27;53.23
13767;BME280;47980;48.794;9.176;2022-07-15T01:45:10;98542.03;;;19.32;52.35
13767;BME280;47980;48.794;9.176;2022-07-15T01:47:43;98542.03;;;19.28;52.29
13767;BME280;47980;48.794;9.176;2022-07-15T01:50:15;98543.88;;;19.24;52.78
13767;BME280;47980;48.794;9.176;2022-07-15T01:52:48;98543.91;;;19.28;52.86
13767;BME280;47980;48.794;9.176;2022-07-15T01:55:21;98539.31;;;19.24;52.38
13767;BME280;47980;48.794;9.176;2022-07-15T01:57:53;98542.75;;;19.25;51.52
13767;BME280;47980;48.794;9.176;2022-07-15T02:00:24;98542.00;;;19.24;52.37
13767;BME280;47980;48.794;9.176;2022-07-15T02:02:56;98538.88;;;19.22;52.70
13767;BME280;47980;48.794;9.176;2022-07-15T02:05:27;98535.41;;;19.18;52.66
13767;BME280;47980;48.794;9.176;2022-07-15T02:08:01;98531.19;;;19.21;52.05
13767;BME280;47980;48.794;9.176;2022-07-15T02:10:32;98531.53;;;19.16;52.09
13767;BME280;47980;48.794;9.176;2022-07-15T02:13:12;98532.31;;;19.20;51.87
13767;BME280;47980;48.794;9.176;2022-07-15T02:15:44;98546.13;;;19.15;52.21
13767;BME280;47980;48.794;9.176;2022-07-15T02:18:15;98528.59;;;18.91;53.40
13767;BME280;47980;48.794;9.176;2022-07-15T02:20:47;98536.38;;;18.99;54.11
13767;BME280;47980;48.794;9.176;2022-07-15T02:23:23;98533.63;;;18.92;55.18
13767;BME280;47980;48.794;9.176;2022-07-15T02:25:55;98543.50;;;18.81;55.43
13767;BME280;47980;48.794;9.176;2022-07-15T02:28:26;98537.63;;;18.72;55.45
13767;BME280;47980;48.794;9.176;2022-07-15T02:30:58;98540.66;;;18.70;55.38
13767;BME280;47980;48.794;9.176;2022-07-15T02:33:30;98535.38;;;18.78;54.99
13767;BME280;47980;48.794;9.176;2022-07-15T02:36:02;98536.19;;;18.82;54.89
13767;BME280;47980;48.794;9.176;2022-07-15T02:38:35;98532.31;;;18.79;54.55
13767;BME280;47980;48.794;9.176;2022-07-15T02:41:07;98538.06;;;18.78;55.09
13767;BME280;47980;48.794;9.176;2022-07-15T02:43:38;98536.00;;;18.67;56.33
13767;BME280;47980;48.794;9.176;2022-07-15T02:46:12;98536.25;;;18.55;56.24
13767;BME280;47980;48.794;9.176;2022-07-15T02:48:44;98545.78;;;18.49;56.30
13767;BME280;47980;48.794;9.176;2022-07-15T02:51:16;98534.75;;;18.58;56.16
13767;BME280;47980;48.794;9.176;2022-07-15T02:53:50;98537.81;;;18.56;56.25
13767;BME280;47980;48.794;9.176;2022-07-15T02:56:21;98535.56;;;18.62;56.44
13767;BME280;47980;48.794;9.176;2022-07-15T02:58:53;98540.34;;;18.75;56.61
13767;BME280;47980;48.794;9.176;2022-07-15T03:01:25;98542.97;;;18.38;58.96
13767;BME280;47980;48.794;9.176;2022-07-15T03:03:56;98537.34;;;18.50;58.15
13767;BME280;47980;48.794;9.176;2022-07-15T03:06:28;98540.19;;;18.31;58.82
13767;BME280;47980;48.794;9.176;2022-07-15T03:09:01;98546.81;;;18.41;58.59
13767;BME280;47980;48.794;9.176;2022-07-15T03:11:33;98549.34;;;18.26;59.89
13767;BME280;47980;48.794;9.176;2022-07-15T03:14:04;98547.91;;;18.36;59.32
13767;BME280;47980;48.794;9.176;2022-07-15T03:16:36;98560.47;;;17.98;61.01
13767;BME280;47980;48.794;9.176;2022-07-15T03:19:08;98548.56;;;18.26;59.26
13767;BME280;47980;48.794;9.176;2022-07-15T03:21:39;98558.28;;;18.34;59.64
13767;BME280;47980;48.794;9.176;2022-07-15T03:24:12;98557.16;;;18.09;60.46
13767;BME280;47980;48.794;9.176;2022-07-15T03:26:44;98549.88;;;18.09;60.78
13767;BME280;47980;48.794;9.176;2022-07-15T03:29:16;98551.28;;;17.99;61.17
13767;BME280;47980;48.794;9.176;2022-07-15T03:31:47;98550.81;;;17.94;62.16
13767;BME280;47980;48.794;9.176;2022-07-15T03:34:19;98558.72;;;17.83;62.12
13767;BME280;47980;48.794;9.176;2022-07-15T03:36:51;98550.41;;;17.92;61.98
13767;BME280;47980;48.794;9.176;2022-07-15T03:39:24;98553.06;;;18.18;60.06
13767;BME280;47980;48.794;9.176;2022-07-15T03:41:56;98557.41;;;18.26;60.05
13767;BME280;47980;48.794;9.176;2022-07-15T03:44:27;98563.03;;;18.18;60.57
13767;BME280;47980;48.794;9.176;2022-07-15T03:46:59;98566.75;;;18.10;61.13
13767;BME280;47980;48.794;9.176;2022-07-15T03:49:30;98567.16;;;18.12;61.18
13767;BME280;47980;48.794;9.176;2022-07-15T03:52:02;98562.69;;;18.19;60.29
13767;BME280;47980;48.794;9.176;2022-07-15T03:54:36;98571.50;;;18.20;61.40
13767;BME280;47980;48.794;9.176;2022-07-15T03:57:07;98564.53;;;18.45;60.89
13767;BME280;47980;48.794;9.176;2022-07-15T03:59:39;98564.56;;;19.16;58.67
13767;BME280;47980;48.794;9.176;2022-07-15T04:02:11;98569.78;;;19.84;56.92
13767;BME280;47980;48.794;9.176;2022-07-15T04:04:42;98565.09;;;20.43;54.78
13767;BME280;47980;48.794;9.176;2022-07-15T04:07:14;98577.72;;;21.37;51.81
13767;BME280;47980;48.794;9.176;2022-07-15T04:09:47;98570.03;;;21.53;52.55
13767;BME280;47980;48.794;9.176;2022-07-15T04:12:18;98571.16;;;21.34;51.96
13767;BME280;47980;48.794;9.176;2022-07-15T04:14:50;98569.59;;;22.12;50.17
13767;BME280;47980;48.794;9.176;2022-07-15T04:17:22;98563.75;;;22.35;49.75
13767;BME280;47980;48.794;9.176;2022-07-15T04:19:53;98568.91;;;22.89;47.58
13767;BME280;47980;48.794;9.176;2022-07-15T04:22:25;98574.97;;;23.18;46.63
13767;BME280;47980;48.794;9.176;2022-07-15T04:24:58;98569.97;;;23.65;44.99
13767;BME280;47980;48.794;9.176;2022-07-15T04:27:30;98572.16;;;23.81;44.54
13767;BME280;47980;48.794;9.176;2022-07-15T04:30:02;98574.72;;;23.98;44.15
13767;BME280;47980;48.794;9.176;2022-07-15T04:32:35;98579.22;;;24.12;43.53
13767;BME280;47980;48.794;9.176;2022-07-15T04:35:08;98575.19;;;24.27;43.57
13767;BME280;47980;48.794;9.176;2022-07-15T04:37:39;98575.97;;;24.62;43.38
13767;BME280;47980;48.794;9.176;2022-07-15T04:40:13;98579.84;;;24.61;43.00
13767;BME280;47980;48.794;9.176;2022-07-15T04:42:44;98579.81;;;23.41;44.43
13767;BME280;47980;48.794;9.176;2022-07-15T04:45:16;98575.47;;;22.91;46.24
13767;BME280;47980;48.794;9.176;2022-07-15T04:47:48;98576.25;;;22.99;46.37
13767;BME280;47980;48.794;9.176;2022-07-15T04:50:20;98575.63;;;22.63;46.41
13767;BME280;47980;48.794;9.176;2022-07-15T04:53:10;98577.28;;;22.14;48.45
13767;BME280;47980;48.794;9.176;2022-07-15T04:55:43;98580.44;;;21.83;49.48
13767;BME280;47980;48.794;9.176;2022-07-15T04:58:15;98572.34;;;21.73;49.49
13767;BME280;47980;48.794;9.176;2022-07-15T05:00:48;98576.22;;;21.65;49.18
13767;BME280;47980;48.794;9.176;2022-07-15T05:03:20;98576.97;;;21.54;50.03
13767;BME280;47980;48.794;9.176;2022-07-15T05:05:51;98578.03;;;20.96;51.24
13767;BME280;47980;48.794;9.176;2022-07-15T05:08:23;98578.50;;;21.52;50.63
13767;BME280;47980;48.794;9.176;2022-07-15T05:10:56;98574.59;;;21.03;52.18
13767;BME280;47980;48.794;9.176;2022-07-15T05:13:28;98574.28;;;21.44;50.37
13767;BME280;47980;48.794;9.176;2022-07-15T05:16:00;98574.66;;;21.53;49.96
13767;BME280;47980;48.794;9.176;2022-07-15T05:18:31;98577.31;;;21.99;49.46
13767;BME280;47980;48.794;9.176;2022-07-15T05:21:03;98583.50;;;21.75;48.86
13767;BME280;47980;48.794;9.176;2022-07-15T05:23:35;98585.44;;;21.49;48.18
13767;BME280;47980;48.794;9.176;2022-07-15T05:26:08;98582.72;;;21.35;48.33
13767;BME280;47980;48.794;9.176;2022-07-15T05:28:41;98586.53;;;21.12;48.42
13767;BME280;47980;48.794;9.176;2022-07-15T05:31:13;98583.84;;;21.27;48.78
13767;BME280;47980;48.794;9.176;2022-07-15T05:33:44;98583.81;;;21.05;49.09
13767;BME280;47980;48.794;9.176;2022-07-15T05:36:16;98591.03;;;20.69;49.94
13767;BME280;47980;48.794;9.176;2022-07-15T05:38:47;98589.66;;;21.22;49.34
13767;BME280;47980;48.794;9.176;2022-07-15T05:41:20;98592.41;;;21.65;48.42
13767;BME280;47980;48.794;9.176;2022-07-15T05:43:52;98591.25;;;21.91;47.67
13767;BME280;47980;48.794;9.176;2022-07-15T05:46:24;98600.09;;;22.16;47.94
13767;BME280;47980;48.794;9.176;2022-07-15T05:48:55;98598.16;;;22.24;48.11
13767;BME280;47980;48.794;9.176;2022-07-15T05:51:27;98597.75;;;22.25;47.25
13767;BME280;47980;48.794;9.176;2022-07-15T05:53:59;98604.34;;;22.03;46.77
13767;BME280;47980;48.794;9.176;2022-07-15T05:56:34;98593.47;;;22.42;46.43
13767;BME280;47980;48.794;9.176;2022-07-15T05:59:05;98602.75;;;22.38;46.47
13767;BME280;47980;48.794;9.176;2022-07-15T06:01:37;98603.16;;;22.00;46.58
13767;BME280;47980;48.794;9.176;2022-07-15T06:04:09;98599.69;;;22.00;47.59
13767;BME280;47980;48.794;9.176;2022-07-15T06:06:41;98609.38;;;21.40;47.56
13767;BME280;47980;48.794;9.176;2022-07-15T06:09:12;98608.22;;;21.87;47.31
13767;BME280;47980;48.794;9.176;2022-07-15T06:11:45;98613.22;;;21.96;46.71
13767;BME280;47980;48.794;9.176;2022-07-15T06:14:17;98612.06;;;22.11;46.28
13767;BME280;47980;48.794;9.176;2022-07-15T06:16:49;98607.72;;;22.53;45.81
13767;BME280;47980;48.794;9.176;2022-07-15T06:19:20;98601.75;;;22.91;44.41
13767;BME280;47980;48.794;9.176;2022-07-15T06:21:52;98607.56;;;23.00;45.58
13767;BME280;47980;48.794;9.176;2022-07-15T06:24:23;98600.34;;;22.65;46.24
13767;BME280;47980;48.794;9.176;2022-07-15T06:26:56;98602.91;;;22.97;46.57
13767;BME280;47980;48.794;9.176;2022-07-15T06:29:28;98603.69;;;22.90;44.35
13767;BME280;47980;48.794;9.176;2022-07-15T06:32:00;98606.06;;;22.85;43.83
13767;BME280;47980;48.794;9.176;2022-07-15T06:34:32;98603.47;;;22.52;45.50
13767;BME280;47980;48.794;9.176;2022-07-15T06:37:03;98611.81;;;22.90;45.49
13767;BME280;47980;48.794;9.176;2022-07-15T06:39:36;98604.19;;;22.67;43.34
13767;BME280;47980;48.794;9.176;2022-07-15T06:42:09;98603.03;;;22.68;43.82
13767;BME280;47980;48.794;9.176;2022-07-15T06:44:40;98605.09;;;22.21;42.86
13767;BME280;47980;48.794;9.176;2022-07-15T06:47:12;98602.81;;;23.15;42.84
13767;BME280;47980;48.794;9.176;2022-07-15T06:49:44;98605.16;;;23.09;41.55
13767;BME280;47980;48.794;9.176;2022-07-15T06:52:16;98598.91;;;23.23;41.49
13767;BME280;47980;48.794;9.176;2022-07-15T06:54:47;98598.53;;;23.21;41.23
13767;BME280;47980;48.794;9.176;2022-07-15T06:57:21;98598.25;;;23.57;40.58
13767;BME280;47980;48.794;9.176;2022-07-15T06:59:52;98597.53;;;23.52;41.05
13767;BME280;47980;48.794;9.176;2022-07-15T07:02:24;98591.94;;;23.77;41.47
13767;BME280;47980;48.794;9.176;2022-07-15T07:04:55;98594.72;;;23.63;42.45
13767;BME280;47980;48.794;9.176;2022-07-15T07:07:27;98599.03;;;23.61;40.73
13767;BME280;47980;48.794;9.176;2022-07-15T07:09:59;98594.06;;;24.00;40.83
13767;BME280;47980;48.794;9.176;2022-07-15T07:12:32;98594.69;;;23.70;39.73
13767;BME280;47980;48.794;9.176;2022-07-15T07:15:05;98593.19;;;24.07;40.34
13767;BME280;47980;48.794;9.176;2022-07-15T07:17:37;98596.22;;;24.16;40.24
13767;BME280;47980;48.794;9.176;2022-07-15T07:20:09;98593.06;;;24.59;39.43
13767;BME280;47980;48.794;9.176;2022-07-15T07:22:41;98593.41;;;24.27;40.29
13767;BME280;47980;48.794;9.176;2022-07-15T07:25:13;98595.63;;;24.36;40.01
13767;BME280;47980;48.794;9.176;2022-07-15T07:27:46;98596.50;;;24.25;40.23
13767;BME280;47980;48.794;9.176;2022-07-15T07:30:18;98598.25;;;24.46;40.04
13767;BME280;47980;48.794;9.176;2022-07-15T07:32:49;98591.47;;;24.62;39.63
13767;BME280;47980;48.794;9.176;2022-07-15T07:35:22;98589.09;;;24.67;40.33
13767;BME280;47980;48.794;9.176;2022-07-15T07:37:55;98596.84;;;24.96;39.02
13767;BME280;47980;48.794;9.176;2022-07-15T07:40:27;98585.41;;;24.50;39.44
13767;BME280;47980;48.794;9.176;2022-07-15T07:43:00;98592.28;;;24.21;38.35
13767;BME280;47980;48.794;9.176;2022-07-15T07:45:31;98593.25;;;24.03;39.28
13767;BME280;47980;48.794;9.176;2022-07-15T07:48:04;98588.97;;;24.06;40.60
13767;BME280;47980;48.794;9.176;2022-07-15T07:50:36;98584.25;;;24.52;38.98
13767;BME280;47980;48.794;9.176;2022-07-15T07:53:07;98588.75;;;24.62;37.96
13767;BME280;47980;48.794;9.176;2022-07-15T07:55:40;98595.94;;;24.45;38.45
13767;BME280;47980;48.794;9.176;2022-07-15T07:58:13;98584.28;;;24.79;38.72
13767;BME280;47980;48.794;9.176;2022-07-15T08:00:47;98589.53;;;24.62;38.16
13767;BME280;47980;48.794;9.176;2022-07-15T08:03:18;98589.06;;;24.98;38.69
13767;BME280;47980;48.794;9.176;2022-07-15T08:05:50;98579.81;;;24.65;38.45
13767;BME280;47980;48.794;9.176;2022-07-15T08:08:23;98589.38;;;25.04;37.10
13767;BME280;47980;48.794;9.176;2022-07-15T08:10:56;98584.69;;;24.46;38.31
13767;BME280;47980;48.794;9.176;2022-07-15T08:13:29;98588.56;;;24.45;37.98
13767;BME280;47980;48.794;9.176;2022-07-15T08:16:01;98581.56;;;25.09;36.18
13767;BME280;47980;48.794;9.176;2022-07-15T08:18:33;98576.72;;;24.93;37.28
13767;BME280;47980;48.794;9.176;2022-07-15T08:21:05;98580.19;;;24.67;37.72
13767;BME280;47980;48.794;9.176;2022-07-15T08:23:36;98577.38;;;24.74;36.68
13767;BME280;47980;48.794;9.176;2022-07-15T08:26:11;98584.25;;;25.09;36.79
13767;BME280;47980;48.794;9.176;2022-07-15T08:28:49;98580.69;;;24.55;37.99
13767;BME280;47980;48.794;9.176;2022-07-15T08:31:21;98580.84;;;25.32;36.48
13767;BME280;47980;48.794;9.176;2022-07-15T08:33:53;98587.53;;;25.28;36.65
13767;BME280;47980;48.794;9.176;2022-07-15T08:36:25;98584.66;;;25.08;36.77
13767;BME280;47980;48.794;9.176;2022-07-15T08:38:57;98585.47;;;25.59;36.90
13767;BME280;47980;48.794;9.176;2022-07-15T08:41:28;98569.47;;;25.64;36.02
13767;BME280;47980;48.794;9.176;2022-07-15T08:44:01;98579.31;;;25.82;35.79
13767;BME280;47980;48.794;9.176;2022-07-15T08:46:34;98577.78;;;25.54;35.85
13767;BME280;47980;48.794;9.176;2022-07-15T08:49:08;98582.66;;;25.89;37.04
13767;BME280;47980;48.794;9.176;2022-07-15T08:51:44;98581.59;;;26.67;34.94
13767;BME280;47980;48.794;9.176;2022-07-15T08:54:16;98574.13;;;26.51;34.80
13767;BME280;47980;48.794;9.176;2022-07-15T08:56:48;98572.53;;;26.33;35.17
13767;BME280;47980;48.794;9.176;2022-07-15T08:59:21;98585.16;;;26.44;35.43
13767;BME280;47980;48.794;9.176;2022-07-15T09:01:53;98582.28;;;26.71;34.46
13767;BME280;47980;48.794;9.176;2022-07-15T09:04:24;98576.00;;;26.74;34.06
13767;BME280;47980;48.794;9.176;2022-07-15T09:07:00;98579.50;;;26.14;35.43
13767;BME280;47980;48.794;9.176;2022-07-15T09:09:34;98576.94;;;25.33;36.70
13767;BME280;47980;48.794;9.176;2022-07-15T09:12:09;98580.97;;;25.72;36.29
13767;BME280;47980;48.794;9.176;2022-07-15T09:14:45;98581.25;;;25.78;36.53
13767;BME280;47980;48.794;9.176;2022-07-15T09:17:24;98590.63;;;26.00;35.99
13767;BME280;47980;48.794;9.176;2022-07-15T09:20:09;98579.75;;;26.00;36.38
13767;BME280;47980;48.794;9.176;2022-07-15T09:22:50;98587.94;;;25.73;36.90
13767;BME280;47980;48.794;9.176;2022-07-15T09:25:23;98583.94;;;26.25;36.41
13767;BME280;47980;48.794;9.176;2022-07-15T09:27:55;98572.44;;;26.77;35.41
13767;BME280;47980;48.794;9.176;2022-07-15T09:30:30;98588.00;;;26.76;35.03
13767;BME280;47980;48.794;9.176;2022-07-15T09:33:22;98580.66;;;27.09;35.16
13767;BME280;47980;48.794;9.176;2022-07-15T09:36:10;98584.25;;;26.70;34.98
13767;BME280;47980;48.794;9.176;2022-07-15T09:38:47;98586.88;;;26.34;35.27
13767;BME280;47980;48.794;9.176;2022-07-15T09:41:24;98583.94;;;26.05;34.90
13767;BME280;47980;48.794;9.176;2022-07-15T09:43:59;98588.09;;;26.53;35.74
13767;BME280;47980;48.794;9.176;2022-07-15T09:46:41;98593.47;;;26.36;34.50
13767;BME280;47980;48.794;9.176;2022-07-15T09:49:15;98588.63;;;26.84;34.70
13767;BME280;47980;48.794;9.176;2022-07-15T09:51:51;98587.88;;;26.63;34.86
13767;BME280;47980;48.794;9.176;2022-07-15T09:54:26;98584.19;;;26.54;35.21
13767;BME280;47980;48.794;9.176;2022-07-15T09:56:59;98586.97;;;26.50;34.80
13767;BME280;47980;48.794;9.176;2022-07-15T09:59:32;98585.03;;;26.87;34.66
13767;BME280;47980;48.794;9.176;2022-07-15T10:02:05;98580.06;;;26.26;34.99
13767;BME280;47980;48.794;9.176;2022-07-15T10:04:39;98579.34;;;26.81;35.36
13767;BME280;47980;48.794;9.176;2022-07-15T10:07:12;98585.16;;;26.44;35.05
13767;BME280;47980;48.794;9.176;2022-07-15T10:09:44;98586.19;;;26.70;35.52
13767;BME280;47980;48.794;9.176;2022-07-15T10:12:18;98570.56;;;25.67;35.86
13767;BME280;47980;48.794;9.176;2022-07-15T10:15:06;98582.38;;;25.06;37.04
13767;BME280;47980;48.794;9.176;2022-07-15T10:17:53;98574.16;;;24.83;37.31
13767;BME280;47980;48.794;9.176;2022-07-15T10:20:40;98586.22;;;25.36;37.52
13767;BME280;47980;48.794;9.176;2022-07-15T10:23:31;98578.53;;;25.31;36.36
13767;BME280;47980;48.794;9.176;2022-07-15T10:26:22;98584.69;;;25.35;36.75
13767;BME280;47980;48.794;9.176;2022-07-15T10:29:01;98569.69;;;25.74;36.51
13767;BME280;47980;48.794;9.176;2022-07-15T10:31:34;98563.50;;;26.16;35.89
13767;BME280;47980;48.794;9.176;2022-07-15T10:34:20;98557.31;;;26.92;35.13
13767;BME280;47980;48.794;9.176;2022-07-15T10:36:58;98564.09;;;27.20;34.88
13767;BME280;47980;48.794;9.176;2022-07-15T10:39:49;98563.72;;;27.02;34.02
13767;BME280;47980;48.794;9.176;2022-07-15T10:42:22;98558.75;;;26.97;34.30
13767;BME280;47980;48.794;9.176;2022-07-15T10:45:05;98549.31;;;26.85;34.95
13767;BME280;47980;48.794;9.176;2022-07-15T10:47:37;98542.13;;;26.75;35.58
13767;BME280;47980;48.794;9.176;2022-07-15T10:50:43;98549.22;;;26.88;34.27
13767;BME280;47980;48.794;9.176;2022-07-15T10:53:23;98545.50;;;26.42;35.74
13767;BME280;47980;48.794;9.176;2022-07-15T10:55:55;98535.03;;;26.61;34.82
13767;BME280;47980;48.794;9.176;2022-07-15T10:59:08;98526.34;;;27.02;35.09
13767;BME280;47980;48.794;9.176;2022-07-15T11:01:41;98530.69;;;26.47;35.41
13767;BME280;47980;48.794;9.176;2022-07-15T11:04:19;98529.56;;;25.81;36.40
13767;BME280;47980;48.794;9.176;2022-07-15T11:07:29;98539.97;;;25.39;37.03
13767;BME280;47980;48.794;9.176;2022-07-15T11:10:15;98523.91;;;24.98;37.29
13767;BME280;47980;48.794;9.176;2022-07-15T11:12:58;98513.22;;;25.61;36.74
13767;BME280;47980;48.794;9.176;2022-07-15T11:15:33;98518.03;;;25.97;35.93
13767;BME280;47980;48.794;9.176;2022-07-15T11:18:06;98524.91;;;26.41;36.29
13767;BME280;47980;48.794;9.176;2022-07-15T11:20:39;98515.63;;;26.95;34.85
13767;BME280;47980;48.794;9.176;2022-07-15T11:23:12;98512.38;;;27.00;35.59
13767;BME280;47980;48.794;9.176;2022-07-15T11:25:44;98507.53;;;27.41;34.36
13767;BME280;47980;48.794;9.176;2022-07-15T11:28:15;98513.88;;;26.69;35.82
13767;BME280;47980;48.794;9.176;2022-07-15T11:30:49;98509.38;;;26.62;35.96
13767;BME280;47980;48.794;9.176;2022-07-15T11:33:24;98516.28;;;26.47;36.80
13767;BME280;47980;48.794;9.176;2022-07-15T11:35:58;98512.81;;;26.26;36.96
13767;BME280;47980;48.794;9.176;2022-07-15T11:38:37;98516.13;;;26.14;36.27
13767;BME280;47980;48.794;9.176;2022-07-15T11:41:10;98503.72;;;26.13;37.07
13767;BME280;47980;48.794;9.176;2022-07-15T11:44:06;98495.06;;;26.38;36.16
13767;BME280;47980;48.794;9.176;2022-07-15T11:46:57;98503.53;;;26.04;36.98
13767;BME280;47980;48.794;9.176;2022-07-15T11:49:30;98498.44;;;26.06;35.86
13767;BME280;47980;48.794;9.176;2022-07-15T11:52:04;98494.44;;;26.50;36.22
13767;BME280;47980;48.794;9.176;2022-07-15T11:54:39;98501.28;;;26.58;36.25
13767;BME280;47980;48.794;9.176;2022-07-15T11:57:11;98497.03;;;26.74;35.59
13767;BME280;47980;48.794;9.176;2022-07-15T11:59:51;98503.28;;;27.07;35.53
13767;BME280;47980;48.794;9.176;2022-07-15T12:02:24;98498.88;;;27.13;35.05
13767;BME280;47980;48.794;9.176;2022-07-15T12:05:03;98500.63;;;26.87;35.22
13767;BME280;47980;48.794;9.176;2022-07-15T12:07:39;98494.88;;;27.18;35.65
13767;BME280;47980;48.794;9.176;2022-07-15T12:10:15;98491.13;;;27.28;35.46
13767;BME280;47980;48.794;9.176;2022-07-15T12:12:52;98504.41;;;27.42;34.23
13767;BME280;47980;48.794;9.176;2022-07-15T12:15:25;98493.38;;;27.62;34.65
13767;BME280;47980;48.794;9.176;2022-07-15T12:17:56;98488.28;;;27.48;34.43
13767;BME280;47980;48.794;9.176;2022-07-15T12:20:28;98492.16;;;27.79;34.40
13767;BME280;47980;48.794;9.176;2022-07-15T12:23:08;98492.53;;;27.49;34.28
13767;BME280;47980;48.794;9.176;2022-07-15T12:25:42;98495.00;;;26.94;34.85
13767;BME280;47980;48.794;9.176;2022-07-15T12:28:28;98492.75;;;27.25;35.51
13767;BME280;47980;48.794;9.176;2022-07-15T12:31:01;98494.84;;;26.85;35.55
13767;BME280;47980;48.794;9.176;2022-07-15T12:33:34;98497.03;;;26.90;35.70
13767;BME280;47980;48.794;9.176;2022-07-15T12:36:15;98492.75;;;27.42;35.78
13767;BME280;47980;48.794;9.176;2022-07-15T12:39:03;98505.66;;;27.54;35.00
13767;BME280;47980;48.794;9.176;2022-07-15T12:41:38;98493.00;;;27.15;35.11
13767;BME280;47980;48.794;9.176;2022-07-15T12:44:11;98489.50;;;27.30;35.49
13767;BME280;47980;48.794;9.176;2022-07-15T12:46:51;98488.84;;;27.55;35.39
13767;BME280;47980;48.794;9.176;2022-07-15T12:49:39;98494.97;;;27.59;34.94
13767;BME280;47980;48.794;9.176;2022-07-15T12:52:24;98493.63;;;27.51;34.89
13767;BME280;47980;48.794;9.176;2022-07-15T12:54:57;98483.19;;;27.01;35.21
13767;BME280;47980;48.794;9.176;2022-07-15T12:57:33;98477.81;;;27.46;35.34
13767;BME280;47980;48.794;9.176;2022-07-15T13:00:10;98485.38;;;27.55;35.12
13767;BME280;47980;48.794;9.176;2022-07-15T13:02:57;98483.91;;;27.96;34.95
13767;BME280;47980;48.794;9.176;2022-07-15T13:05:31;98494.09;;;27.50;35.22
13767;BME280;47980;48.794;9.176;2022-07-15T13:08:04;98484.03;;;26.98;36.08
13767;BME280;47980;48.794;9.176;2022-07-15T13:10:36;98486.34;;;26.99;35.75
13767;BME280;47980;48.794;9.176;2022-07-15T13:13:10;98496.81;;;26.48;36.89
13767;BME280;47980;48.794;9.176;2022-07-15T13:15:43;98487.75;;;26.55;36.49
13767;BME280;47980;48.794;9.176;2022-07-15T13:18:16;98489.81;;;26.67;36.40
13767;BME280;47980;48.794;9.176;2022-07-15T13:20:48;98482.59;;;26.77;36.11
13767;BME280;47980;48.794;9.176;2022-07-15T13:23:20;98484.56;;;27.25;35.69
13767;BME280;47980;48.794;9.176;2022-07-15T13:25:52;98476.16;;;27.94;35.14
13767;BME280;47980;48.794;9.176;2022-07-15T13:28:26;98472.47;;;27.72;34.72
13767;BME280;47980;48.794;9.176;2022-07-15T13:30:57;98466.00;;;27.82;34.58
13767;BME280;47980;48.794;9.176;2022-07-15T13:33:30;98464.34;;;28.26;33.88
13767;BME280;47980;48.794;9.176;2022-07-15T13:36:02;98467.25;;;28.06;33.75